createdAt,value
2023-05-19T00:02:26.137Z,3.60
2023-05-19T00:04:53.256Z,3.90
2023-05-19T00:07:20.467Z,4.00
2023-05-19T00:09:47.524Z,3.65
2023-05-19T00:12:14.781Z,3.60
2023-05-19T00:14:41.863Z,3.88
2023-05-19T00:17:09.132Z,3.90
2023-05-19T00:19:35.965Z,3.90
2023-05-19T00:22:02.811Z,3.72
2023-05-19T00:24:29.625Z,3.67
2023-05-19T00:26:56.440Z,3.75
2023-05-19T00:29:23.208Z,3.75
2023-05-19T00:31:50.023Z,3.85
2023-05-19T00:34:16.817Z,3.80
2023-05-19T00:36:43.700Z,3.70
2023-05-19T00:39:13.933Z,3.50
2023-05-19T00:41:40.814Z,3.60
2023-05-19T00:44:07.868Z,3.80
2023-05-19T00:46:34.744Z,3.70
2023-05-19T00:49:01.601Z,3.70
2023-05-19T00:51:29.643Z,3.50
2023-05-19T00:53:57.556Z,3.60
2023-05-19T00:56:24.336Z,3.88
2023-05-19T00:58:51.846Z,3.63
2023-05-19T01:01:18.968Z,3.50
2023-05-19T01:03:47.223Z,3.88
2023-05-19T01:06:15.019Z,3.63
2023-05-19T01:08:42.190Z,3.70
2023-05-19T01:11:09.163Z,3.40
2023-05-19T01:13:36.697Z,3.72
2023-05-19T01:16:21.405Z,3.60
2023-05-19T01:18:56.206Z,3.58
2023-05-19T01:21:44.365Z,3.50
2023-05-19T01:24:42.343Z,3.53
2023-05-19T01:27:23.402Z,3.50
2023-05-19T01:30:27.986Z,3.80
2023-05-19T01:32:59.673Z,3.60
2023-05-19T01:35:28.020Z,3.47
2023-05-19T01:37:57.732Z,3.40
2023-05-19T01:40:25.686Z,3.50
2023-05-19T01:42:58.295Z,3.35
2023-05-19T01:45:27.441Z,3.60
2023-05-19T01:47:57.076Z,3.47
2023-05-19T01:50:24.079Z,3.35
2023-05-19T01:52:51.367Z,3.45
2023-05-19T01:55:18.365Z,3.53
2023-05-19T01:58:03.228Z,3.17
2023-05-19T02:00:52.105Z,3.65
2023-05-19T02:03:34.052Z,3.10
2023-05-19T02:06:34.857Z,3.80
2023-05-19T02:09:16.302Z,3.40
2023-05-19T02:12:02.417Z,3.58
2023-05-19T02:14:48.001Z,3.30
2023-05-19T02:17:16.331Z,3.30
2023-05-19T02:19:43.447Z,3.65
2023-05-19T02:22:10.465Z,3.47
2023-05-19T02:24:37.701Z,3.00
2023-05-19T02:27:04.752Z,3.50
2023-05-19T02:29:31.533Z,3.38
2023-05-19T02:32:00.461Z,3.55
2023-05-19T02:34:27.293Z,3.40
2023-05-19T02:36:54.031Z,3.30
2023-05-19T02:39:20.806Z,3.60
2023-05-19T02:41:47.603Z,3.35
2023-05-19T02:44:14.587Z,3.25
2023-05-19T02:46:41.392Z,3.67
2023-05-19T02:49:08.186Z,3.20
2023-05-19T02:51:34.950Z,3.30
2023-05-19T02:54:01.809Z,3.30
2023-05-19T02:56:28.733Z,3.50
2023-05-19T02:58:56.166Z,3.22
2023-05-19T03:01:23.240Z,3.15
2023-05-19T03:03:50.176Z,3.33
2023-05-19T03:06:18.083Z,3.20
2023-05-19T03:08:45.150Z,3.10
2023-05-19T03:11:11.927Z,3.42
2023-05-19T03:13:38.849Z,3.67
2023-05-19T03:16:08.279Z,3.20
2023-05-19T03:18:35.273Z,3.20
2023-05-19T03:21:02.073Z,2.97
2023-05-19T03:23:28.898Z,3.10
2023-05-19T03:25:56.300Z,3.20
2023-05-19T03:28:23.476Z,3.00
2023-05-19T03:30:50.754Z,3.15
2023-05-19T03:33:20.216Z,3.58
2023-05-19T03:35:47.157Z,3.22
2023-05-19T03:38:15.129Z,3.05
2023-05-19T03:40:49.360Z,3.03
2023-05-19T03:43:16.286Z,2.90
2023-05-19T03:45:49.093Z,3.35
2023-05-19T03:48:34.393Z,3.33
2023-05-19T03:51:16.501Z,3.15
2023-05-19T03:53:45.633Z,3.10
2023-05-19T03:56:13.926Z,3.13
2023-05-19T03:58:45.048Z,3.13
2023-05-19T04:01:12.307Z,3.22
2023-05-19T04:03:39.147Z,2.88
2023-05-19T04:06:06.539Z,2.75
2023-05-19T04:08:33.524Z,2.97
2023-05-19T04:11:00.360Z,3.00
2023-05-19T04:13:27.151Z,3.03
2023-05-19T04:15:53.978Z,3.20
2023-05-19T04:18:20.898Z,2.90
2023-05-19T04:20:47.771Z,3.05
2023-05-19T04:23:14.597Z,2.90
2023-05-19T04:25:41.964Z,3.35
2023-05-19T04:28:09.121Z,2.90
2023-05-19T04:30:38.673Z,2.75
2023-05-19T04:33:05.660Z,2.90
2023-05-19T04:35:32.873Z,2.92
2023-05-19T04:38:01.663Z,2.80
2023-05-19T04:40:31.802Z,2.63
2023-05-19T04:42:59.138Z,3.13
2023-05-19T04:45:26.365Z,2.90
2023-05-19T04:47:58.210Z,3.05
2023-05-19T04:50:25.342Z,2.95
2023-05-19T04:52:52.736Z,3.28
2023-05-19T04:55:19.648Z,2.70
2023-05-19T04:57:48.281Z,3.00
2023-05-19T05:00:15.611Z,3.05
2023-05-19T05:02:53.728Z,2.90
2023-05-19T05:05:21.799Z,2.72
2023-05-19T05:07:49.508Z,2.80
2023-05-19T05:10:16.758Z,2.60
2023-05-19T05:12:43.886Z,2.70
2023-05-19T05:15:11.370Z,2.90
2023-05-19T05:17:38.868Z,2.50
2023-05-19T05:20:06.907Z,2.72
2023-05-19T05:22:34.450Z,2.85
2023-05-19T05:25:02.058Z,2.70
2023-05-19T05:27:29.030Z,2.60
2023-05-19T05:29:58.625Z,2.60
2023-05-19T05:32:27.259Z,2.70
2023-05-19T05:34:54.958Z,2.60
2023-05-19T05:37:22.048Z,2.67
2023-05-19T05:39:48.994Z,2.90
2023-05-19T05:42:16.242Z,2.70
2023-05-19T05:44:43.530Z,2.70
2023-05-19T05:47:12.225Z,2.88
2023-05-19T05:49:40.253Z,2.60
2023-05-19T05:52:08.993Z,2.75
2023-05-19T05:54:42.449Z,2.55
2023-05-19T05:57:10.309Z,2.30
2023-05-19T05:59:38.665Z,2.58
2023-05-19T06:02:05.640Z,2.58
2023-05-19T06:04:33.184Z,2.63
2023-05-19T06:07:01.716Z,2.95
2023-05-19T06:09:32.983Z,2.65
2023-05-19T06:12:00.320Z,2.70
2023-05-19T06:14:30.991Z,2.65
2023-05-19T06:17:35.701Z,2.72
2023-05-19T06:20:03.429Z,2.40
2023-05-19T06:22:30.542Z,2.53
2023-05-19T06:24:57.491Z,4.97
2023-05-19T06:27:24.417Z,5.18
2023-05-19T06:29:51.420Z,5.40
2023-05-19T06:32:18.483Z,5.78
2023-05-19T06:34:46.123Z,5.55
2023-05-19T06:37:16.999Z,5.40
2023-05-19T06:39:43.971Z,5.38
2023-05-19T06:42:10.728Z,5.68
2023-05-19T06:44:57.248Z,5.53
2023-05-19T06:47:24.456Z,5.40
2023-05-19T06:49:55.360Z,5.78
2023-05-19T06:52:25.606Z,5.53
2023-05-19T06:54:53.325Z,5.57
2023-05-19T06:57:20.246Z,5.10
2023-05-19T06:59:47.170Z,5.35
2023-05-19T07:02:14.791Z,5.47
2023-05-19T07:04:43.110Z,5.10
2023-05-19T07:07:12.170Z,5.70
2023-05-19T07:09:39.443Z,5.40
2023-05-19T07:12:06.717Z,5.57
2023-05-19T07:14:33.660Z,5.22
2023-05-19T07:17:00.484Z,5.40
2023-05-19T07:19:27.564Z,4.40
2023-05-19T07:21:55.493Z,4.15
2023-05-19T07:24:22.512Z,4.10
2023-05-19T07:26:49.396Z,3.60
2023-05-19T07:29:16.270Z,3.70
2023-05-19T07:31:43.143Z,3.50
2023-05-19T07:34:09.970Z,3.88
2023-05-19T07:36:36.854Z,3.10
2023-05-19T07:39:03.791Z,2.83
2023-05-19T07:41:30.665Z,3.30
2023-05-19T07:43:57.463Z,3.20
2023-05-19T07:46:24.247Z,3.13
2023-05-19T07:48:51.014Z,3.03
2023-05-19T07:51:17.804Z,3.72
2023-05-19T07:53:44.549Z,4.45
2023-05-19T07:56:11.728Z,3.95
2023-05-19T07:58:38.495Z,4.18
2023-05-19T08:01:05.792Z,3.95
2023-05-19T08:03:33.071Z,4.25
2023-05-19T08:06:00.082Z,4.15
2023-05-19T08:08:26.913Z,3.95
2023-05-19T08:10:53.713Z,3.70
2023-05-19T08:13:20.622Z,3.63
2023-05-19T08:15:47.387Z,3.92
2023-05-19T08:18:14.278Z,3.75
2023-05-19T08:20:41.100Z,3.67
2023-05-19T08:23:07.854Z,3.42
2023-05-19T08:25:34.593Z,3.10
2023-05-19T08:28:01.508Z,3.20
2023-05-19T08:30:28.277Z,3.00
2023-05-19T08:32:55.066Z,3.03
2023-05-19T08:35:21.964Z,2.90
2023-05-19T08:37:48.729Z,3.17
2023-05-19T08:40:18.016Z,3.70
2023-05-19T08:42:45.882Z,3.22
2023-05-19T08:45:12.992Z,3.50
2023-05-19T08:47:43.986Z,3.40
2023-05-19T08:50:11.885Z,3.22
2023-05-19T08:52:57.857Z,3.42
2023-05-19T08:55:42.281Z,3.55
2023-05-19T08:58:09.451Z,5.25
2023-05-19T09:00:37.064Z,4.00
2023-05-19T09:03:17.630Z,6.07
2023-05-19T09:05:49.965Z,3.60
2023-05-19T09:08:16.749Z,4.30
2023-05-19T09:10:44.217Z,3.85
2023-05-19T09:13:11.074Z,3.58
2023-05-19T09:15:39.886Z,3.63
2023-05-19T09:18:12.363Z,3.20
2023-05-19T09:20:46.099Z,2.85
2023-05-19T09:23:18.476Z,3.25
2023-05-19T09:25:52.552Z,3.05
2023-05-19T09:28:35.273Z,3.28
2023-05-19T09:31:06.725Z,3.10
2023-05-19T09:33:36.210Z,3.20
2023-05-19T09:36:06.013Z,3.17
2023-05-19T09:38:33.440Z,3.47
2023-05-19T09:41:01.200Z,2.50
2023-05-19T09:43:29.265Z,2.70
2023-05-19T09:46:09.189Z,2.40
2023-05-19T09:48:37.169Z,2.85
2023-05-19T09:51:06.248Z,2.47
2023-05-19T09:53:34.399Z,3.10
2023-05-19T09:56:02.223Z,2.40
2023-05-19T09:58:35.091Z,2.58
2023-05-19T10:01:02.309Z,2.40
2023-05-19T10:03:30.148Z,2.20
2023-05-19T10:05:57.348Z,2.53
2023-05-19T10:08:26.587Z,3.00
2023-05-19T10:10:53.534Z,2.80
2023-05-19T10:13:21.678Z,2.40
2023-05-19T10:15:57.959Z,2.60
2023-05-19T10:18:27.950Z,2.40
2023-05-19T10:20:55.152Z,2.78
2023-05-19T10:23:22.556Z,2.55
2023-05-19T10:25:51.394Z,2.53
2023-05-19T10:28:21.032Z,2.83
2023-05-19T10:30:49.745Z,2.90
2023-05-19T10:33:18.177Z,2.47
2023-05-19T10:36:14.467Z,2.75
2023-05-19T10:39:25.551Z,2.67
2023-05-19T10:42:08.984Z,2.97
2023-05-19T10:44:54.120Z,2.60
2023-05-19T10:47:27.684Z,2.75
2023-05-19T10:49:54.890Z,2.60
2023-05-19T10:52:23.473Z,2.35
2023-05-19T10:54:51.356Z,2.40
2023-05-19T10:57:18.386Z,2.40
2023-05-19T10:59:45.214Z,2.72
2023-05-19T11:02:41.843Z,2.60
2023-05-19T11:05:18.117Z,2.40
2023-05-19T11:07:55.292Z,2.40
2023-05-19T11:10:25.656Z,2.40
2023-05-19T11:12:52.537Z,2.40
2023-05-19T11:15:25.575Z,2.22
2023-05-19T11:17:52.763Z,2.15
2023-05-19T11:20:27.319Z,2.50
2023-05-19T11:23:19.086Z,2.78
2023-05-19T11:25:51.428Z,2.70
2023-05-19T11:28:20.169Z,2.80
2023-05-19T11:30:51.874Z,3.15
2023-05-19T11:33:20.101Z,2.45
2023-05-19T11:35:49.282Z,2.80
2023-05-19T11:38:17.664Z,2.67
2023-05-19T11:40:44.738Z,2.22
2023-05-19T11:43:11.519Z,4.93
2023-05-19T11:45:38.487Z,2.17
2023-05-19T11:48:06.966Z,2.40
2023-05-19T11:50:35.270Z,4.15
2023-05-19T11:53:02.570Z,3.17
2023-05-19T11:55:30.280Z,8.85
2023-05-19T11:58:04.467Z,2.50
2023-05-19T12:00:40.232Z,2.50
2023-05-19T12:03:09.194Z,10.15
2023-05-19T12:05:44.750Z,11.23
2023-05-19T12:08:12.415Z,8.43
2023-05-19T12:10:40.000Z,2.38
2023-05-19T12:13:10.687Z,2.60
2023-05-19T12:15:38.764Z,2.30
2023-05-19T12:18:05.863Z,2.88
2023-05-19T12:20:35.292Z,2.40
2023-05-19T12:23:02.599Z,2.45
2023-05-19T12:25:30.245Z,2.30
2023-05-19T12:28:02.871Z,2.45
2023-05-19T12:30:31.805Z,2.45
2023-05-19T12:32:59.167Z,2.50
2023-05-19T12:35:37.518Z,2.40
2023-05-19T12:38:05.021Z,2.40
2023-05-19T12:40:33.955Z,2.08
2023-05-19T12:43:01.407Z,2.15
2023-05-19T12:45:28.765Z,2.20
2023-05-19T12:47:56.193Z,2.20
2023-05-19T12:50:30.578Z,2.35
2023-05-19T12:52:59.534Z,2.20
2023-05-19T12:55:26.357Z,1.90
2023-05-19T12:57:56.765Z,2.50
2023-05-19T13:00:28.033Z,2.30
2023-05-19T13:03:05.398Z,2.10
2023-05-19T13:05:40.292Z,2.55
2023-05-19T13:08:12.005Z,2.35
2023-05-19T13:10:40.298Z,2.30
2023-05-19T13:13:08.332Z,2.33
2023-05-19T13:15:38.051Z,2.05
2023-05-19T13:18:08.791Z,2.05
2023-05-19T13:20:37.366Z,2.22
2023-05-19T13:25:33.957Z,2.40
2023-05-19T13:28:03.826Z,2.17
2023-05-19T13:30:31.199Z,2.10
2023-05-19T13:32:58.023Z,2.10
2023-05-19T13:35:24.897Z,2.13
2023-05-19T13:37:51.807Z,2.60
2023-05-19T13:40:19.147Z,3.40
2023-05-19T13:42:46.122Z,3.17
2023-05-19T13:45:13.006Z,3.30
2023-05-19T13:47:39.890Z,2.90
2023-05-19T13:50:07.779Z,3.17
2023-05-19T13:52:35.861Z,3.05
2023-05-19T13:55:03.950Z,3.00
2023-05-19T13:57:30.868Z,3.05
2023-05-19T14:00:03.184Z,2.85
2023-05-19T14:02:40.638Z,3.25
2023-05-19T14:05:10.204Z,3.03
2023-05-19T14:07:37.253Z,2.97
2023-05-19T14:10:06.867Z,3.30
2023-05-19T14:12:55.229Z,3.20
2023-05-19T14:15:25.456Z,3.08
2023-05-19T14:17:53.378Z,2.85
2023-05-19T14:20:20.311Z,3.10
2023-05-19T14:22:47.188Z,2.80
2023-05-19T14:25:14.080Z,3.30
2023-05-19T14:27:41.013Z,3.10
2023-05-19T14:30:08.632Z,2.80
2023-05-19T14:32:36.149Z,3.15
2023-05-19T14:35:03.280Z,3.00
2023-05-19T14:37:31.857Z,3.03
2023-05-19T14:42:25.825Z,3.13
2023-05-19T14:44:52.754Z,3.03
2023-05-19T14:47:19.571Z,3.17
2023-05-19T14:49:46.423Z,2.92
2023-05-19T14:52:13.304Z,2.90
2023-05-19T14:54:40.126Z,3.08
2023-05-19T14:57:08.176Z,3.50
2023-05-19T14:59:38.505Z,3.00
2023-05-19T15:02:05.779Z,2.95
2023-05-19T15:04:32.729Z,2.95
2023-05-19T15:07:09.604Z,2.78
2023-05-19T15:09:40.361Z,3.25
2023-05-19T15:12:45.475Z,2.88
2023-05-19T15:15:12.408Z,2.97
2023-05-19T15:17:39.503Z,2.90
2023-05-19T15:20:07.051Z,3.00
2023-05-19T15:22:34.366Z,3.10
2023-05-19T15:27:56.188Z,2.70
2023-05-19T15:30:23.136Z,3.17
2023-05-19T15:32:50.355Z,2.90
2023-05-19T15:35:17.626Z,3.25
2023-05-19T15:37:44.815Z,3.15
2023-05-19T15:40:12.621Z,2.70
2023-05-19T15:42:39.949Z,4.63
2023-05-19T15:45:08.277Z,6.55
2023-05-19T15:47:38.372Z,3.42
2023-05-19T15:50:06.182Z,4.65
2023-05-19T15:52:34.545Z,4.88
2023-05-19T15:55:02.016Z,4.15
2023-05-19T15:57:29.099Z,5.05
2023-05-19T15:59:56.016Z,5.80
2023-05-19T16:02:23.025Z,11.00
2023-05-19T16:04:49.986Z,3.85
2023-05-19T16:07:17.027Z,3.40
2023-05-19T16:09:44.063Z,12.13
2023-05-19T16:12:10.886Z,4.88
2023-05-19T16:14:37.909Z,4.80
2023-05-19T16:17:10.910Z,10.18
2023-05-19T16:19:38.297Z,5.40
2023-05-19T16:22:05.385Z,4.80
2023-05-19T16:24:32.225Z,16.77
2023-05-19T16:26:59.122Z,4.22
2023-05-19T16:29:25.873Z,4.60
2023-05-19T16:31:52.726Z,4.90
2023-05-19T16:34:19.551Z,3.95
2023-05-19T16:36:46.338Z,4.05
2023-05-19T16:39:13.349Z,3.97
2023-05-19T16:41:40.236Z,4.20
2023-05-19T16:44:07.025Z,5.57
2023-05-19T16:46:34.106Z,13.20
2023-05-19T16:49:01.069Z,10.75
2023-05-19T16:51:27.908Z,12.80
2023-05-19T16:53:54.746Z,14.07
2023-05-19T16:56:21.996Z,12.27
2023-05-19T16:58:49.372Z,9.63
2023-05-19T17:01:17.452Z,16.45
2023-05-19T17:03:44.374Z,3.50
2023-05-19T17:06:11.291Z,3.38
2023-05-19T17:08:38.200Z,3.40
2023-05-19T17:11:09.601Z,2.95
2023-05-19T17:13:36.701Z,2.72
2023-05-19T17:16:03.673Z,3.35
2023-05-19T17:18:31.453Z,3.30
2023-05-19T17:21:03.771Z,2.72
2023-05-19T17:23:31.721Z,3.08
2023-05-19T17:25:59.235Z,2.70
2023-05-19T17:28:26.478Z,2.90
2023-05-19T17:30:53.346Z,2.83
2023-05-19T17:33:20.877Z,2.90
2023-05-19T17:35:47.895Z,3.00
2023-05-19T17:38:14.828Z,3.05
2023-05-19T17:40:42.137Z,2.85
2023-05-19T17:43:09.391Z,3.00
2023-05-19T17:45:36.294Z,3.17
2023-05-19T17:48:03.447Z,2.85
2023-05-19T17:50:30.749Z,3.00
2023-05-19T17:52:58.183Z,3.05
2023-05-19T17:55:30.042Z,2.90
2023-05-19T17:57:57.472Z,2.80
2023-05-19T18:00:25.425Z,2.88
2023-05-19T18:02:53.288Z,2.75
2023-05-19T18:05:20.767Z,2.80
2023-05-19T18:07:48.306Z,3.03
2023-05-19T18:10:16.290Z,3.58
2023-05-19T18:12:43.181Z,3.60
2023-05-19T18:15:10.605Z,3.15
2023-05-19T18:17:37.526Z,2.83
2023-05-19T18:20:05.342Z,2.88
2023-05-19T18:22:32.801Z,2.95
2023-05-19T18:24:59.750Z,2.83
2023-05-19T18:27:27.823Z,2.90
2023-05-19T18:29:54.803Z,2.80
2023-05-19T18:32:21.585Z,2.90
2023-05-19T18:34:48.356Z,2.72
2023-05-19T18:37:15.188Z,2.80
2023-05-19T18:39:42.064Z,2.78
2023-05-19T18:42:09.222Z,2.80
2023-05-19T18:44:36.136Z,2.60
2023-05-19T18:47:03.369Z,2.83
2023-05-19T18:49:30.375Z,3.03
2023-05-19T18:51:57.225Z,2.97
2023-05-19T18:54:24.882Z,2.63
2023-05-19T18:56:51.887Z,2.92
2023-05-19T18:59:19.052Z,3.10
2023-05-19T19:01:46.007Z,2.95
2023-05-19T19:04:14.769Z,2.90
2023-05-19T19:06:42.005Z,2.63
2023-05-19T19:09:08.955Z,2.90
2023-05-19T19:11:35.875Z,2.85
2023-05-19T19:14:02.713Z,2.70
2023-05-19T19:16:29.700Z,3.05
2023-05-19T19:18:56.583Z,2.83
2023-05-19T19:21:24.196Z,3.00
2023-05-19T19:23:56.052Z,3.03
2023-05-19T19:26:24.969Z,2.85
2023-05-19T19:28:51.782Z,3.25
2023-05-19T19:31:18.725Z,3.22
2023-05-19T19:33:45.623Z,2.97
2023-05-19T19:36:12.529Z,3.10
2023-05-19T19:38:39.548Z,3.35
2023-05-19T19:41:06.345Z,3.55
2023-05-19T19:43:33.203Z,3.30
2023-05-19T19:46:01.105Z,3.03
2023-05-19T19:48:28.541Z,2.90
2023-05-19T19:50:58.873Z,3.40
2023-05-19T19:53:25.795Z,3.00
2023-05-19T19:56:00.023Z,3.17
2023-05-19T19:58:28.026Z,3.10
2023-05-19T20:00:59.693Z,3.40
2023-05-19T20:03:27.091Z,2.95
2023-05-19T20:05:55.220Z,3.20
2023-05-19T20:08:23.078Z,3.58
2023-05-19T20:10:49.988Z,3.15
2023-05-19T20:13:17.349Z,3.22
2023-05-19T20:15:44.608Z,3.10
2023-05-19T20:18:12.023Z,3.15
2023-05-19T20:20:39.521Z,3.05
2023-05-19T20:23:07.608Z,3.50
2023-05-19T20:25:50.161Z,3.22
2023-05-19T20:28:25.890Z,2.88
2023-05-19T20:30:52.705Z,3.13
2023-05-19T20:33:19.467Z,2.92
2023-05-19T20:35:46.206Z,2.78
2023-05-19T20:38:12.992Z,2.83
2023-05-19T20:40:39.851Z,2.80
2023-05-19T20:43:06.869Z,2.95
2023-05-19T20:45:33.937Z,2.92
2023-05-19T20:48:02.726Z,2.65
2023-05-19T20:50:29.791Z,2.80
2023-05-19T20:52:56.579Z,3.00
2023-05-19T20:55:23.375Z,2.90
2023-05-19T20:57:50.350Z,3.22
2023-05-19T21:00:17.455Z,2.67
2023-05-19T21:02:44.477Z,2.80
2023-05-19T21:05:11.524Z,2.90
2023-05-19T21:07:38.435Z,2.85
2023-05-19T21:10:05.921Z,2.60
2023-05-19T21:12:34.228Z,3.13
2023-05-19T21:15:02.172Z,2.85
2023-05-19T21:17:29.287Z,3.08
2023-05-19T21:19:59.357Z,2.75
2023-05-19T21:22:26.709Z,2.80
2023-05-19T21:24:54.397Z,2.70
2023-05-19T21:27:21.844Z,2.72
2023-05-19T21:29:55.923Z,2.65
2023-05-19T21:32:22.739Z,2.70
2023-05-19T21:34:49.614Z,3.17
2023-05-19T21:37:17.625Z,2.55
2023-05-19T21:39:44.923Z,3.00
2023-05-19T21:42:11.835Z,2.70
2023-05-19T21:44:38.808Z,2.70
2023-05-19T21:47:05.717Z,2.63
2023-05-19T21:49:32.610Z,2.75
2023-05-19T21:51:59.394Z,2.55
2023-05-19T21:54:26.375Z,2.80
2023-05-19T21:56:53.323Z,2.38
2023-05-19T21:59:23.216Z,2.67
2023-05-19T22:01:50.358Z,2.50
2023-05-19T22:04:18.496Z,2.90
2023-05-19T22:06:45.667Z,2.60
2023-05-19T22:09:12.841Z,2.47
2023-05-19T22:11:39.900Z,2.50
2023-05-19T22:14:07.002Z,2.38
2023-05-19T22:16:34.274Z,2.45
2023-05-19T22:19:01.305Z,2.60
2023-05-19T22:21:28.149Z,2.50
2023-05-19T22:23:55.000Z,2.42
2023-05-19T22:26:22.131Z,2.70
2023-05-19T22:28:49.792Z,2.33
2023-05-19T22:31:17.045Z,2.20
2023-05-19T22:33:43.888Z,2.50
2023-05-19T22:36:11.115Z,2.50
2023-05-19T22:38:37.989Z,2.33
2023-05-19T22:41:05.084Z,2.50
2023-05-19T22:43:32.949Z,2.30
2023-05-19T22:45:59.808Z,2.25
2023-05-19T22:48:26.718Z,2.58
2023-05-19T22:50:53.525Z,2.60
2023-05-19T22:53:20.375Z,2.53
2023-05-19T22:55:47.494Z,2.38
2023-05-19T22:58:14.310Z,2.40
2023-05-19T23:00:41.158Z,2.38
2023-05-19T23:03:07.954Z,2.50
2023-05-19T23:05:35.052Z,2.40
2023-05-19T23:08:02.194Z,2.42
2023-05-19T23:10:28.963Z,2.40
2023-05-19T23:12:55.762Z,2.50
2023-05-19T23:15:22.589Z,2.38
2023-05-19T23:17:49.548Z,2.50
2023-05-19T23:20:16.420Z,2.33
2023-05-19T23:22:43.378Z,2.42
2023-05-19T23:25:10.295Z,2.60
2023-05-19T23:27:37.062Z,2.28
2023-05-19T23:30:04.328Z,2.40
2023-05-19T23:32:31.133Z,2.63
2023-05-19T23:34:57.995Z,2.22
2023-05-19T23:37:24.944Z,2.30
2023-05-19T23:39:51.757Z,2.30
2023-05-19T23:42:18.618Z,2.33
2023-05-19T23:44:45.598Z,2.50
2023-05-19T23:47:12.390Z,2.30
2023-05-19T23:49:39.176Z,2.35
2023-05-19T23:52:06.421Z,2.45
2023-05-19T23:54:33.166Z,2.25
2023-05-19T23:57:02.563Z,2.40
2023-05-19T23:59:29.334Z,2.15
